This is the latest recevied weather packets stored in our database for station/object DJ0JJ-11. If no packets are shown the sender has not sent any weather packets the latest 10 day(s).
| Time | Temp. | Humidity | Pressure | Rain* | Wind** | Luminosity | Snow |
|---|---|---|---|---|---|---|---|
| 1787760329 | 25.56° C | 59% | 1016.5 hPa | - | - | - | - |
| 1787759429 | 25.56° C | 60% | 1016.4 hPa | - | - | - | - |
| 1787758529 | 25° C | 61% | 1016.4 hPa | - | - | - | - |
| 1787757629 | 25.56° C | 61% | 1016.6 hPa | - | - | - | - |
| 1787756729 | 25.56° C | 60% | 1016.5 hPa | - | - | - | - |
| 1787755828 | 25.56° C | 60% | 1016.8 hPa | - | - | - | - |
| 1787754928 | 25.56° C | 61% | 1016.9 hPa | - | - | - | - |
| 1787754028 | 25.56° C | 61% | 1017.1 hPa | - | - | - | - |
| 1787753128 | 25.56° C | 62% | 1017.2 hPa | - | - | - | - |
| 1787752230 | 25° C | 64% | 1017.5 hPa | - | - | - | - |
| 1787751330 | 24.44° C | 66% | 1017.5 hPa | - | - | - | - |
| 1787750430 | 24.44° C | 67% | 1017.7 hPa | - | - | - | - |
| 1787749530 | 23.89° C | 68% | 1017.8 hPa | - | - | - | - |
| 1787748630 | 23.33° C | 69% | 1018.2 hPa | - | - | - | - |
| 1787747730 | 22.78° C | 73% | 1018.1 hPa | - | - | - | - |
| 1787746830 | 22.22° C | 77% | 1018.4 hPa | - | - | - | - |
| 1787745930 | 21.67° C | 78% | 1018.5 hPa | - | - | - | - |
| 1787745030 | 21.67° C | 81% | 1018.7 hPa | - | - | - | - |
| 1787744130 | 21.11° C | 83% | 1018.8 hPa | - | - | - | - |
| 1787743229 | 20.56° C | 87% | 1018.8 hPa | - | - | - | - |
| 1787742329 | 20° C | 89% | 1018.8 hPa | - | - | - | - |
| 1787741429 | 19.44° C | 92% | 1019.1 hPa | - | - | - | - |
| 1787740529 | 18.89° C | 94% | 1019.2 hPa | - | - | - | - |
| 1787739629 | 18.33° C | 97% | 1019.4 hPa | - | - | - | - |
| 1787738729 | 17.78° C | 100% | 1019.5 hPa | - | - | - | - |
* Rain since midnight (hover to see other rain measurements)
** Current wind speed in m/s (hover to see current wind gust speed)